Time;durP1;ratioP1;P1;durP2;ratioP2;P2;SDS_P1;SDS_P2;PMS_P1;PMS_P2;Temp;Humidity;BMP_temperature;BMP_pressure;BME280_temperature;BME280_humidity;BME280_pressure;Samples;Min_cycle;Max_cycle;Signal;HPM_P1;HPM_P2
2024/04/17 00:02:26;;;;;;;0.10;0.10;;;20.90;51.20;;;;;;5429838;26;20338;-49
2024/04/17 00:04:58;;;;;;;0.03;0.03;;;20.90;51.20;;;;;;5401104;26;20300;-54
2024/04/17 00:07:27;;;;;;;0.00;0.00;;;20.90;51.20;;;;;;5400953;26;20624;-51
2024/04/17 00:10:03;;;;;;;0.10;0.10;;;20.90;51.20;;;;;;5407723;26;20790;-52
2024/04/17 00:12:32;;;;;;;0.10;0.10;;;20.90;51.70;;;;;;5428664;26;20264;-52
2024/04/17 00:15:04;;;;;;;0.03;0.03;;;20.90;51.80;;;;;;5400545;26;20279;-53
2024/04/17 00:17:33;;;;;;;0.10;0.10;;;20.90;51.80;;;;;;5400164;26;20221;-54
2024/04/17 00:20:06;;;;;;;0.10;0.10;;;21.00;51.90;;;;;;5400021;26;20273;-56
2024/04/17 00:22:35;;;;;;;0.00;0.00;;;20.90;51.70;;;;;;5398991;26;20259;-53
2024/04/17 00:25:11;;;;;;;0.10;0.10;;;21.00;51.70;;;;;;5400815;26;20569;-56
2024/04/17 00:27:40;;;;;;;0.10;0.10;;;21.00;51.60;;;;;;5400326;26;20251;-49
2024/04/17 00:30:13;;;;;;;0.00;0.00;;;21.00;51.60;;;;;;5399328;26;20583;-49
2024/04/17 00:32:42;;;;;;;0.00;0.00;;;21.00;51.50;;;;;;5400498;26;20268;-49
2024/04/17 00:35:14;;;;;;;0.10;0.10;;;21.00;51.50;;;;;;5400361;26;20622;-52
2024/04/17 00:37:43;;;;;;;0.00;0.00;;;21.00;51.50;;;;;;5400446;26;20252;-50
2024/04/17 00:40:20;;;;;;;0.00;0.00;;;21.00;51.60;;;;;;5400156;26;20267;-47
2024/04/17 00:42:49;;;;;;;0.00;0.00;;;21.00;51.70;;;;;;5399257;26;20213;-48
2024/04/17 00:45:21;;;;;;;0.08;0.08;;;21.00;51.60;;;;;;5401903;26;20238;-48
2024/04/17 00:47:50;;;;;;;0.00;0.00;;;21.00;51.70;;;;;;5401107;26;20226;-48
2024/04/17 00:50:23;;;;;;;0.00;0.00;;;21.00;51.70;;;;;;5399237;26;20248;-51
2024/04/17 00:52:52;;;;;;;0.10;0.10;;;21.00;51.80;;;;;;5401636;26;20217;-49
2024/04/17 00:55:28;;;;;;;0.00;0.00;;;21.00;51.80;;;;;;5436296;26;20282;-52
2024/04/17 00:57:59;;;;;;;0.05;0.05;;;21.00;51.80;;;;;;5410275;26;20228;-53
2024/04/17 01:00:31;;;;;;;0.00;0.00;;;21.00;51.80;;;;;;5399403;26;20338;-55
2024/04/17 01:03:00;;;;;;;0.00;0.00;;;21.00;51.70;;;;;;5399654;26;20214;-53
2024/04/17 01:05:33;;;;;;;0.08;0.08;;;21.00;51.80;;;;;;5400334;26;20237;-54
2024/04/17 01:08:06;;;;;;;0.00;0.00;;;21.10;51.90;;;;;;5399859;26;20310;-52
2024/04/17 01:10:41;;;;;;;0.00;0.00;;;21.10;51.80;;;;;;5400369;26;20669;-50
2024/04/17 01:13:10;;;;;;;0.10;0.10;;;21.10;51.90;;;;;;5403941;26;20870;-55
2024/04/17 01:15:42;;;;;;;0.00;0.00;;;21.10;51.90;;;;;;5400657;26;20714;-55
2024/04/17 01:18:13;;;;;;;0.00;0.00;;;21.10;51.80;;;;;;5399829;26;20221;-52
2024/04/17 01:20:46;;;;;;;0.00;0.00;;;21.10;51.80;;;;;;5404786;26;20260;-51
2024/04/17 01:23:18;;;;;;;0.00;0.00;;;21.10;51.80;;;;;;5400893;26;20264;-58
2024/04/17 01:25:50;;;;;;;0.00;0.00;;;21.10;51.80;;;;;;5399331;26;20233;-59
2024/04/17 01:28:23;;;;;;;0.10;0.10;;;21.10;51.80;;;;;;5399982;26;20256;-54
2024/04/17 01:30:52;;;;;;;0.00;0.00;;;21.00;51.70;;;;;;5398928;26;20221;-51
2024/04/17 01:33:24;;;;;;;0.00;0.00;;;21.00;51.80;;;;;;5403001;26;20221;-55
2024/04/17 01:35:53;;;;;;;0.00;0.00;;;21.00;51.80;;;;;;5408158;26;20792;-49
2024/04/17 01:38:26;;;;;;;0.00;0.00;;;21.00;51.80;;;;;;5407875;26;20727;-50
2024/04/17 01:40:58;;;;;;;0.00;0.00;;;21.00;51.80;;;;;;5432180;26;20274;-51
2024/04/17 01:43:32;;;;;;;0.00;0.00;;;21.00;51.80;;;;;;5442542;26;20220;-52
2024/04/17 01:46:02;;;;;;;0.10;0.10;;;21.00;51.80;;;;;;5442303;26;20266;-55
2024/04/17 01:48:34;;;;;;;0.00;0.00;;;21.00;51.80;;;;;;5442356;26;20952;-51
2024/04/17 01:51:04;;;;;;;0.10;0.10;;;21.00;51.80;;;;;;5437661;26;20244;-52
2024/04/17 01:53:36;;;;;;;0.10;0.10;;;21.00;51.80;;;;;;5417401;26;20228;-49
2024/04/17 01:56:08;;;;;;;0.10;0.10;;;21.00;51.80;;;;;;5443569;26;20684;-54
2024/04/17 01:58:41;;;;;;;0.10;0.10;;;21.00;51.80;;;;;;5444938;26;20275;-56
2024/04/17 02:01:10;;;;;;;0.00;0.00;;;21.00;51.80;;;;;;5447351;26;20216;-54
2024/04/17 02:03:42;;;;;;;0.10;0.10;;;21.00;51.80;;;;;;5420401;26;20271;-53
2024/04/17 02:06:12;;;;;;;0.10;0.10;;;21.00;51.80;;;;;;5429189;26;20224;-57
2024/04/17 02:08:44;;;;;;;0.03;0.03;;;21.00;51.80;;;;;;5443102;26;20224;-48
2024/04/17 02:11:17;;;;;;;0.10;0.10;;;21.00;51.90;;;;;;5418444;26;20233;-51
2024/04/17 02:13:49;;;;;;;0.10;0.10;;;21.00;51.90;;;;;;5406891;26;20225;-52
2024/04/17 02:16:18;;;;;;;0.00;0.00;;;21.00;51.80;;;;;;5405752;26;20268;-54
2024/04/17 02:18:50;;;;;;;0.10;0.10;;;21.00;51.90;;;;;;5418263;26;20584;-49
2024/04/17 02:21:19;;;;;;;0.10;0.10;;;21.00;51.90;;;;;;5443120;26;20221;-52
2024/04/17 02:23:52;;;;;;;0.10;0.10;;;21.00;51.90;;;;;;5411894;26;20315;-55
2024/04/17 02:26:25;;;;;;;0.10;0.10;;;21.00;51.90;;;;;;5405890;26;20214;-55
2024/04/17 02:28:57;;;;;;;0.10;0.10;;;21.00;51.90;;;;;;5405374;26;20217;-50
2024/04/17 02:31:26;;;;;;;0.10;0.10;;;21.00;51.80;;;;;;5407160;26;20226;-49
2024/04/17 02:33:58;;;;;;;0.03;0.03;;;21.00;51.80;;;;;;5405654;26;20276;-47
2024/04/17 02:36:27;;;;;;;0.10;0.10;;;21.00;51.80;;;;;;5406709;26;20217;-52
2024/04/17 02:39:00;;;;;;;0.00;0.00;;;21.00;51.80;;;;;;5417173;26;20244;-48
2024/04/17 02:41:32;;;;;;;0.00;0.00;;;21.00;51.80;;;;;;5442586;26;20255;-53
2024/04/17 02:44:05;;;;;;;0.00;0.00;;;21.00;51.80;;;;;;5429330;26;20242;-50
2024/04/17 02:46:34;;;;;;;0.10;0.10;;;21.10;51.70;;;;;;5401651;26;20213;-49
2024/04/17 02:49:06;;;;;;;0.10;0.10;;;21.10;51.70;;;;;;5402820;26;20218;-49
2024/04/17 02:51:35;;;;;;;0.00;0.00;;;21.00;51.70;;;;;;5405451;26;20275;-54
2024/04/17 02:54:08;;;;;;;0.10;0.10;;;21.00;51.70;;;;;;5402864;26;20237;-50
2024/04/17 02:56:40;;;;;;;0.00;0.00;;;21.00;51.60;;;;;;5401997;26;20582;-51
2024/04/17 02:59:13;;;;;;;0.00;0.00;;;21.00;51.70;;;;;;5413560;26;20721;-48
2024/04/17 03:01:42;;;;;;;0.00;0.00;;;21.10;51.70;;;;;;5434432;26;20263;-53
2024/04/17 03:04:14;;;;;;;0.05;0.05;;;21.00;52.30;;;;;;5431121;26;20284;-52
2024/04/17 03:06:43;;;;;;;0.10;0.10;;;21.00;51.60;;;;;;5403245;26;20252;-51
2024/04/17 03:09:15;;;;;;;0.00;0.00;;;21.00;51.60;;;;;;5402653;26;20809;-55
2024/04/17 03:11:48;;;;;;;0.10;0.10;;;21.10;51.70;;;;;;5406569;26;20227;-51
2024/04/17 03:14:20;;;;;;;0.00;0.00;;;21.00;51.60;;;;;;5401273;26;20713;-47
2024/04/17 03:16:49;;;;;;;0.00;0.00;;;21.00;51.60;;;;;;5401945;26;20269;-51
2024/04/17 03:19:22;;;;;;;0.00;0.00;;;21.00;51.60;;;;;;5400933;26;20283;-53
2024/04/17 03:21:51;;;;;;;0.05;0.05;;;21.00;51.60;;;;;;5401710;26;20237;-56
2024/04/17 03:24:23;;;;;;;0.00;0.00;;;21.00;51.70;;;;;;5401211;26;20297;-54
2024/04/17 03:26:56;;;;;;;0.00;0.00;;;21.00;51.60;;;;;;5404737;26;20229;-51
2024/04/17 03:29:28;;;;;;;0.00;0.00;;;21.10;51.70;;;;;;5402315;26;20222;-55
2024/04/17 03:31:58;;;;;;;0.00;0.00;;;21.00;51.60;;;;;;5431983;26;20224;-53
2024/04/17 03:34:31;;;;;;;0.10;0.10;;;21.10;51.60;;;;;;5400891;26;20238;-51
2024/04/17 03:37:03;;;;;;;0.08;0.08;;;21.00;51.60;;;;;;5401519;26;20286;-54
2024/04/17 03:39:35;;;;;;;0.00;0.00;;;21.00;51.50;;;;;;5409674;26;20332;-52
2024/04/17 03:42:12;;;;;;;0.00;0.00;;;21.00;51.50;;;;;;5402170;26;20229;-50
2024/04/17 03:44:44;;;;;;;0.00;0.00;;;21.00;51.50;;;;;;5401937;26;20716;-50
2024/04/17 03:47:16;;;;;;;0.00;0.00;;;21.10;51.60;;;;;;5400470;26;20217;-48
2024/04/17 03:49:45;;;;;;;0.10;0.10;;;21.10;51.60;;;;;;5401223;26;20567;-50
2024/04/17 03:52:18;;;;;;;0.00;0.00;;;21.10;51.60;;;;;;5400322;26;20267;-49
2024/04/17 03:54:47;;;;;;;0.00;0.00;;;21.00;51.60;;;;;;5400368;26;20230;-54
2024/04/17 03:57:22;;;;;;;0.10;0.10;;;21.00;51.50;;;;;;5409106;26;20828;-50
2024/04/17 03:59:51;;;;;;;0.00;0.00;;;21.10;51.60;;;;;;5414791;26;20637;-51
2024/04/17 04:02:24;;;;;;;0.00;0.00;;;21.10;51.60;;;;;;5401375;26;20242;-50
2024/04/17 04:04:53;;;;;;;0.10;0.10;;;21.00;51.50;;;;;;5400014;26;20222;-51
2024/04/17 04:07:25;;;;;;;0.03;0.03;;;21.00;51.50;;;;;;5400792;26;20339;-49
2024/04/17 04:09:54;;;;;;;0.10;0.10;;;21.10;51.50;;;;;;5401219;26;20214;-49
2024/04/17 04:12:30;;;;;;;0.05;0.05;;;21.10;51.50;;;;;;5400633;26;20229;-54
2024/04/17 04:14:59;;;;;;;0.10;0.10;;;21.10;51.50;;;;;;5400962;26;20229;-53
2024/04/17 04:17:31;;;;;;;0.00;0.00;;;21.10;51.50;;;;;;5400941;26;20218;-51
2024/04/17 04:20:00;;;;;;;0.00;0.00;;;21.10;51.40;;;;;;5400727;26;20694;-53
2024/04/17 04:22:33;;;;;;;0.10;0.10;;;21.10;51.40;;;;;;5398759;26;20290;-50
2024/04/17 04:25:02;;;;;;;0.00;0.00;;;21.10;51.40;;;;;;5400745;26;20817;-52
2024/04/17 04:27:37;;;;;;;0.10;0.10;;;21.10;51.30;;;;;;5400852;26;20561;-48
2024/04/17 04:30:07;;;;;;;0.05;0.05;;;21.10;51.20;;;;;;5399292;26;20225;-50
2024/04/17 04:32:40;;;;;;;0.00;0.00;;;21.10;51.20;;;;;;5400766;26;20552;-52
2024/04/17 04:35:09;;;;;;;0.00;0.00;;;21.10;51.10;;;;;;5400526;26;20305;-49
2024/04/17 04:37:41;;;;;;;0.10;0.10;;;21.10;51.10;;;;;;5400241;26;20221;-50
2024/04/17 04:40:11;;;;;;;0.00;0.00;;;21.10;51.00;;;;;;5400001;26;20669;-47
2024/04/17 04:42:47;;;;;;;0.03;0.03;;;21.10;51.00;;;;;;5399186;26;20647;-52
2024/04/17 04:45:16;;;;;;;0.10;0.10;;;21.10;50.90;;;;;;5403726;26;20262;-49
2024/04/17 04:47:48;;;;;;;0.00;0.00;;;21.10;50.80;;;;;;5399721;26;20273;-52
2024/04/17 04:50:18;;;;;;;0.00;0.00;;;21.10;50.80;;;;;;5400694;26;20272;-51
2024/04/17 04:52:50;;;;;;;0.00;0.00;;;21.10;50.70;;;;;;5399416;26;20578;-49
2024/04/17 04:55:19;;;;;;;0.00;0.00;;;21.10;50.70;;;;;;5400686;26;20336;-51
2024/04/17 04:57:55;;;;;;;0.10;0.10;;;21.10;50.70;;;;;;5399230;26;20217;-52
2024/04/17 05:00:24;;;;;;;0.10;0.10;;;21.20;50.70;;;;;;5430730;26;20312;-50
2024/04/17 05:02:56;;;;;;;0.00;0.00;;;21.20;50.70;;;;;;5435251;26;20267;-51
2024/04/17 05:05:25;;;;;;;0.10;0.10;;;21.10;50.60;;;;;;5435410;26;20274;-47
2024/04/17 05:07:58;;;;;;;0.10;0.10;;;21.20;50.60;;;;;;5424921;26;20273;-51
2024/04/17 05:10:27;;;;;;;0.10;0.10;;;21.20;50.60;;;;;;5399380;26;20222;-49
2024/04/17 05:13:02;;;;;;;0.10;0.10;;;21.20;50.50;;;;;;5399153;26;20255;-51
2024/04/17 05:15:34;;;;;;;0.00;0.00;;;21.20;50.50;;;;;;5399180;26;20264;-48
2024/04/17 05:18:04;;;;;;;0.10;0.10;;;21.10;50.40;;;;;;5398945;26;20218;-50
2024/04/17 05:20:37;;;;;;;0.10;0.10;;;21.10;50.40;;;;;;5403071;26;20891;-47
2024/04/17 05:23:07;;;;;;;0.10;0.10;;;21.20;50.30;;;;;;5400511;26;20264;-47
2024/04/17 05:25:39;;;;;;;0.00;0.00;;;21.10;50.20;;;;;;5398733;26;20322;-50
2024/04/17 05:28:11;;;;;;;0.00;0.00;;;21.10;50.20;;;;;;5411160;26;20225;-51
2024/04/17 05:30:44;;;;;;;0.10;0.10;;;21.10;50.20;;;;;;5434746;26;20228;-51
2024/04/17 05:33:13;;;;;;;0.08;0.08;;;21.10;50.20;;;;;;5416902;26;20225;-50
2024/04/17 05:35:45;;;;;;;0.10;0.10;;;21.10;50.10;;;;;;5399623;26;20741;-50
2024/04/17 05:38:14;;;;;;;0.00;0.00;;;21.10;50.10;;;;;;5418389;26;20708;-47
2024/04/17 05:40:50;;;;;;;0.00;0.00;;;21.10;50.10;;;;;;5407404;26;20334;-54
2024/04/17 05:43:23;;;;;;;0.00;0.00;;;21.00;50.10;;;;;;5398665;26;20213;-53
2024/04/17 05:45:55;;;;;;;0.00;0.00;;;21.00;50.10;;;;;;5398652;26;20237;-51
2024/04/17 05:48:24;;;;;;;0.00;0.00;;;21.00;50.10;;;;;;5398514;26;20222;-53
2024/04/17 05:50:57;;;;;;;0.10;0.10;;;21.00;50.10;;;;;;5399699;26;20226;-52
2024/04/17 05:53:26;;;;;;;0.10;0.10;;;21.00;50.10;;;;;;5399794;26;20328;-52
2024/04/17 05:55:58;;;;;;;0.00;0.00;;;21.00;50.10;;;;;;5398418;26;20791;-53
2024/04/17 05:58:30;;;;;;;0.10;0.10;;;21.00;50.20;;;;;;5399110;26;20811;-53
2024/04/17 06:01:03;;;;;;;0.10;0.10;;;20.90;50.10;;;;;;5397640;26;20337;-54
2024/04/17 06:03:35;;;;;;;0.00;0.00;;;20.90;50.10;;;;;;5398128;26;20255;-52
2024/04/17 06:06:04;;;;;;;0.00;0.00;;;20.90;50.10;;;;;;5399069;26;20362;-50
2024/04/17 06:08:37;;;;;;;0.10;0.10;;;20.90;50.20;;;;;;5398636;26;20321;-48
2024/04/17 06:11:06;;;;;;;0.03;0.03;;;20.90;50.20;;;;;;5399489;26;20809;-49
2024/04/17 06:13:42;;;;;;;0.00;0.00;;;20.90;50.10;;;;;;5399194;26;20217;-51
2024/04/17 06:16:11;;;;;;;0.00;0.00;;;20.90;50.20;;;;;;5396683;26;20229;-48
2024/04/17 06:18:43;;;;;;;0.10;0.10;;;20.90;50.20;;;;;;5398051;26;20222;-50
2024/04/17 06:21:12;;;;;;;0.10;0.10;;;20.90;50.20;;;;;;5401938;26;20309;-51
2024/04/17 06:23:44;;;;;;;0.10;0.10;;;20.80;50.10;;;;;;5402075;26;20225;-49
2024/04/17 06:26:14;;;;;;;0.10;0.10;;;20.80;50.10;;;;;;5403271;26;20222;-50
2024/04/17 06:28:49;;;;;;;0.05;0.05;;;20.90;50.20;;;;;;5401865;26;20629;-50
2024/04/17 06:31:18;;;;;;;0.08;0.08;;;20.90;50.20;;;;;;5405738;26;20225;-52
2024/04/17 06:33:51;;;;;;;0.10;0.10;;;20.80;50.10;;;;;;5434571;26;20236;-49
2024/04/17 06:36:20;;;;;;;0.10;0.10;;;20.90;50.20;;;;;;5442765;26;20271;-48
2024/04/17 06:38:52;;;;;;;0.10;0.10;;;20.80;50.20;;;;;;5442626;26;20276;-51
2024/04/17 06:41:21;;;;;;;0.10;0.10;;;20.90;50.20;;;;;;5442448;26;20292;-52
2024/04/17 06:43:58;;;;;;;0.10;0.10;;;20.90;50.20;;;;;;5442658;26;20284;-49
2024/04/17 06:46:28;;;;;;;0.08;0.08;;;20.90;50.20;;;;;;5441348;26;20881;-48
2024/04/17 06:49:00;;;;;;;0.00;0.00;;;20.80;50.10;;;;;;5441820;26;20601;-52
2024/04/17 06:51:29;;;;;;;0.10;0.10;;;20.80;50.10;;;;;;5442011;26;20224;-48
2024/04/17 06:54:01;;;;;;;0.10;0.10;;;20.80;50.20;;;;;;5411357;26;20229;-49
2024/04/17 06:56:31;;;;;;;0.10;0.10;;;20.80;50.20;;;;;;5405924;26;20222;-52
2024/04/17 06:59:06;;;;;;;0.00;0.00;;;20.80;50.20;;;;;;5405977;26;20222;-52
2024/04/17 07:01:35;;;;;;;0.10;0.10;;;20.80;50.20;;;;;;5406543;26;20221;-48
2024/04/17 07:04:08;;;;;;;0.00;0.00;;;20.80;50.20;;;;;;5438522;26;20266;-50
2024/04/17 07:06:37;;;;;;;0.10;0.10;;;20.80;50.20;;;;;;5442475;26;20224;-48
2024/04/17 07:09:10;;;;;;;0.00;0.00;;;20.80;50.20;;;;;;5442515;26;20255;-49
2024/04/17 07:11:39;;;;;;;0.00;0.00;;;20.70;50.10;;;;;;5442315;26;20221;-48
2024/04/17 07:14:14;;;;;;;0.10;0.10;;;20.70;50.40;;;;;;5441660;26;20790;-51
2024/04/17 07:16:43;;;;;;;0.00;0.00;;;20.70;50.10;;;;;;5441977;26;20220;-48
2024/04/17 07:19:16;;;;;;;0.00;0.00;;;20.70;50.10;;;;;;5442464;26;20225;-51
2024/04/17 07:21:45;;;;;;;0.00;0.00;;;20.70;50.10;;;;;;5422802;26;20229;-50
2024/04/17 07:24:17;;;;;;;0.00;0.00;;;20.70;50.10;;;;;;5406095;26;20237;-49
2024/04/17 07:26:46;;;;;;;0.10;0.10;;;20.60;50.00;;;;;;5405947;26;20275;-49
2024/04/17 07:29:22;;;;;;;0.00;0.00;;;20.60;50.10;;;;;;5405355;26;20501;-48
2024/04/17 07:31:54;;;;;;;0.10;0.10;;;20.60;50.00;;;;;;5404668;26;20229;-53
2024/04/17 07:34:24;;;;;;;0.00;0.00;;;20.60;50.00;;;;;;5405216;26;20805;-48
2024/04/17 07:36:56;;;;;;;0.00;0.00;;;20.60;50.00;;;;;;5405455;26;20225;-48
2024/04/17 07:39:25;;;;;;;0.10;0.10;;;20.60;50.10;;;;;;5407444;26;20745;-49
2024/04/17 07:41:57;;;;;;;0.10;0.10;;;20.50;50.00;;;;;;5422496;26;20633;-49
2024/04/17 07:44:30;;;;;;;0.00;0.00;;;20.50;50.00;;;;;;5425007;21;20598;-50
2024/04/17 07:47:03;;;;;;;0.10;0.10;;;20.50;50.00;;;;;;5441742;26;20263;-48
2024/04/17 07:49:32;;;;;;;0.10;0.10;;;20.50;50.00;;;;;;5441586;26;20262;-50
2024/04/17 07:52:04;;;;;;;0.00;0.00;;;20.50;50.00;;;;;;5441698;26;20220;-52
2024/04/17 07:54:33;;;;;;;0.10;0.10;;;20.40;49.90;;;;;;5432620;26;20573;-48
2024/04/17 07:57:06;;;;;;;0.00;0.00;;;20.50;50.00;;;;;;5406062;26;20225;-48
2024/04/17 07:59:38;;;;;;;0.10;0.10;;;20.40;49.90;;;;;;5404947;26;20214;-46
2024/04/17 08:02:11;;;;;;;0.10;0.10;;;20.40;49.90;;;;;;5405839;26;20233;-46
2024/04/17 08:04:40;;;;;;;0.08;0.08;;;20.40;49.90;;;;;;5405797;26;20280;-46
2024/04/17 08:07:12;;;;;;;0.20;0.20;;;20.40;50.00;;;;;;5405421;26;20335;-45
2024/04/17 08:09:42;;;;;;;0.10;0.10;;;20.30;49.90;;;;;;5404893;26;20221;-47
2024/04/17 08:12:14;;;;;;;0.00;0.00;;;20.30;49.90;;;;;;5405209;26;20277;-46
2024/04/17 08:14:46;;;;;;;0.10;0.10;;;20.30;49.90;;;;;;5404788;26;20677;-47
2024/04/17 08:17:19;;;;;;;0.00;0.00;;;20.30;49.90;;;;;;5394489;26;20295;-47
2024/04/17 08:19:48;;;;;;;0.00;0.00;;;20.30;49.90;;;;;;5370259;26;20273;-46
2024/04/17 08:22:20;;;;;;;0.05;0.05;;;20.20;50.50;;;;;;5370673;26;20222;-45
2024/04/17 08:24:49;;;;;;;0.10;0.10;;;20.20;49.90;;;;;;5370309;26;20573;-49
2024/04/17 08:27:22;;;;;;;0.10;0.10;;;20.20;49.90;;;;;;5370396;26;20235;-48
2024/04/17 08:29:54;;;;;;;0.10;0.10;;;20.20;49.80;;;;;;5371192;26;20218;-48
2024/04/17 08:32:26;;;;;;;0.00;0.00;;;20.20;49.80;;;;;;5403190;26;20221;-48
2024/04/17 08:34:56;;;;;;;0.10;0.10;;;20.10;49.80;;;;;;5403557;26;20230;-48
2024/04/17 08:37:28;;;;;;;0.10;0.10;;;20.10;49.80;;;;;;5402918;26;20339;-45
2024/04/17 08:39:57;;;;;;;0.03;0.03;;;20.10;49.80;;;;;;5405284;26;20294;-47
2024/04/17 08:42:32;;;;;;;0.10;0.10;;;20.10;49.80;;;;;;5403823;26;20217;-45
2024/04/17 08:45:11;;;;;;;0.10;0.10;;;20.10;49.90;;;;;;5433497;21;20287;-46
2024/04/17 08:47:45;;;;;;;0.10;0.10;;;20.10;50.00;;;;;;5441216;26;20277;-48
2024/04/17 08:50:16;;;;;;;0.10;0.10;;;20.10;50.10;;;;;;5440377;26;20279;-46
2024/04/17 08:52:49;;;;;;;0.00;0.00;;;20.10;50.10;;;;;;5440124;26;20258;-48
2024/04/17 08:55:19;;;;;;;0.10;0.10;;;20.10;50.20;;;;;;5421127;26;20237;-49
2024/04/17 08:57:51;;;;;;;0.10;0.10;;;20.10;50.20;;;;;;5395817;26;20245;-47
2024/04/17 09:00:24;;;;;;;0.00;0.00;;;20.10;50.20;;;;;;5398719;26;20775;-47
2024/04/17 09:03:00;;;;;;;0.10;0.10;;;20.10;50.20;;;;;;5400551;26;20268;-46
2024/04/17 09:05:32;;;;;;;0.10;0.10;;;20.10;50.20;;;;;;5399798;26;20365;-48
2024/04/17 09:08:02;;;;;;;0.10;0.10;;;20.10;50.20;;;;;;5399221;26;20325;-48
2024/04/17 09:10:34;;;;;;;0.10;0.10;;;20.10;50.20;;;;;;5400874;26;20272;-46
2024/04/17 09:13:04;;;;;;;0.15;0.15;;;20.10;50.30;;;;;;5399167;26;20281;-48
2024/04/17 09:15:40;;;;;;;0.10;0.10;;;20.10;50.30;;;;;;5398988;26;20658;-49
2024/04/17 09:18:11;;;;;;;0.10;0.10;;;20.10;50.30;;;;;;5393144;26;20229;-50
2024/04/17 09:20:44;;;;;;;0.00;0.00;;;20.10;50.30;;;;;;5367609;26;20230;-47
2024/04/17 09:23:13;;;;;;;0.10;0.10;;;20.10;50.30;;;;;;5399122;26;20225;-48
2024/04/17 09:25:46;;;;;;;0.10;0.10;;;20.10;50.30;;;;;;5398640;26;20299;-49
2024/04/17 09:28:16;;;;;;;0.03;0.03;;;20.10;50.40;;;;;;5398177;26;20804;-52
2024/04/17 09:30:52;;;;;;;0.10;0.10;;;20.10;50.30;;;;;;5400266;26;20752;-46
2024/04/17 09:33:22;;;;;;;0.00;0.00;;;20.00;50.20;;;;;;5399321;26;20801;-47
2024/04/17 09:35:54;;;;;;;0.00;0.00;;;20.00;50.30;;;;;;5397148;26;21683;-47
2024/04/17 09:38:23;;;;;;;0.00;0.00;;;20.00;50.30;;;;;;5398804;26;20226;-48
2024/04/17 09:40:57;;;;;;;0.10;0.10;;;20.00;50.30;;;;;;5367226;26;20282;-47
2024/04/17 09:43:27;;;;;;;0.10;0.10;;;20.00;50.20;;;;;;5362238;26;20343;-47
2024/04/17 09:46:03;;;;;;;0.10;0.10;;;20.00;50.20;;;;;;5364620;26;20231;-50
2024/04/17 09:48:36;;;;;;;0.00;0.00;;;20.00;50.20;;;;;;5373367;26;20225;-50
2024/04/17 09:51:09;;;;;;;0.00;0.00;;;20.00;50.20;;;;;;5399390;26;20272;-47
2024/04/17 09:53:42;;;;;;;0.08;0.08;;;19.90;50.20;;;;;;5399551;26;20222;-47
2024/04/17 09:56:18;;;;;;;0.00;0.00;;;19.90;50.10;;;;;;5401472;26;20355;-47
2024/04/17 09:58:49;;;;;;;0.10;0.10;;;19.90;50.20;;;;;;5401923;26;20263;-48
2024/04/17 10:01:25;;;;;;;0.00;0.00;;;19.90;50.20;;;;;;5402623;26;20717;-46
2024/04/17 10:03:56;;;;;;;0.10;0.10;;;19.90;50.10;;;;;;5402276;26;20273;-46
2024/04/17 10:06:28;;;;;;;0.00;0.00;;;19.90;50.10;;;;;;5401763;26;20276;-46
2024/04/17 10:08:58;;;;;;;0.10;0.10;;;19.80;50.10;;;;;;5402776;26;20256;-47
2024/04/17 10:11:33;;;;;;;0.10;0.10;;;19.80;50.00;;;;;;5402515;26;20705;-47
2024/04/17 10:14:04;;;;;;;0.03;0.03;;;19.80;50.00;;;;;;5401972;26;20677;-47
2024/04/17 10:16:40;;;;;;;0.10;0.10;;;19.80;50.00;;;;;;5401900;26;20263;-46
2024/04/17 10:19:09;;;;;;;0.10;0.10;;;19.80;50.00;;;;;;5403178;26;20312;-46
2024/04/17 10:21:42;;;;;;;0.10;0.10;;;19.80;50.00;;;;;;5401428;26;20279;-46
2024/04/17 10:24:12;;;;;;;0.10;0.10;;;19.80;50.60;;;;;;5402601;26;20564;-45
2024/04/17 10:26:49;;;;;;;0.03;0.03;;;19.80;50.00;;;;;;5401524;26;20583;-46
2024/04/17 10:29:19;;;;;;;0.10;0.10;;;19.70;49.90;;;;;;5402996;26;20269;-46
2024/04/17 10:32:08;;;;;;;0.00;0.00;;;19.70;49.90;;;;;;5401939;26;20744;-47
2024/04/17 10:34:45;;;;;;;0.00;0.00;;;19.70;49.90;;;;;;5367469;26;20235;-48
2024/04/17 10:37:18;;;;;;;0.00;0.00;;;19.70;49.80;;;;;;5366602;26;20312;-46
2024/04/17 10:39:48;;;;;;;0.10;0.10;;;19.70;49.80;;;;;;5367906;26;20230;-47
2024/04/17 10:42:22;;;;;;;0.00;0.00;;;19.70;49.80;;;;;;5399619;26;20287;-47
2024/04/17 10:44:52;;;;;;;0.00;0.00;;;19.70;49.80;;;;;;5426300;21;20814;-50
2024/04/17 10:47:31;;;;;;;0.00;0.00;;;19.70;49.80;;;;;;5438614;26;20217;-51
2024/04/17 10:50:04;;;;;;;0.10;0.10;;;19.60;49.70;;;;;;5437405;26;20212;-49
2024/04/17 10:52:34;;;;;;;0.00;0.00;;;19.60;49.70;;;;;;5438389;26;20228;-48
2024/04/17 10:55:06;;;;;;;0.03;0.03;;;19.60;49.70;;;;;;5418230;26;20237;-48
2024/04/17 10:57:36;;;;;;;0.00;0.00;;;19.60;49.70;;;;;;5402321;26;20217;-48
2024/04/17 11:00:09;;;;;;;0.10;0.10;;;19.60;49.60;;;;;;5374274;26;20314;-55
2024/04/17 11:02:42;;;;;;;0.00;0.00;;;19.60;49.60;;;;;;5377731;26;20515;-49
2024/04/17 11:05:14;;;;;;;0.00;0.00;;;19.60;49.60;;;;;;5400371;26;20667;-51
2024/04/17 11:07:43;;;;;;;0.08;0.08;;;19.60;50.20;;;;;;5401909;26;20221;-53
2024/04/17 11:10:16;;;;;;;0.10;0.10;;;19.50;49.50;;;;;;5401073;26;20230;-57
2024/04/17 11:12:45;;;;;;;0.10;0.10;;;19.50;49.60;;;;;;5401286;26;20287;-54
2024/04/17 11:15:17;;;;;;;0.03;0.03;;;19.50;49.50;;;;;;5400688;26;20705;-56
2024/04/17 11:17:50;;;;;;;0.05;0.05;;;19.50;49.50;;;;;;5398287;26;20226;-54
2024/04/17 11:20:23;;;;;;;0.10;0.10;;;19.50;49.40;;;;;;5366704;26;20324;-55
2024/04/17 11:22:52;;;;;;;0.00;0.00;;;19.40;49.40;;;;;;5392129;26;20678;-54
2024/04/17 11:25:24;;;;;;;0.00;0.00;;;19.40;49.30;;;;;;5402478;26;20683;-54
2024/04/17 11:27:53;;;;;;;0.10;0.10;;;19.40;49.30;;;;;;5402265;26;20268;-53
2024/04/17 11:30:26;;;;;;;0.10;0.10;;;19.40;49.30;;;;;;5400453;26;20218;-54
2024/04/17 11:33:02;;;;;;;0.00;0.00;;;19.40;49.20;;;;;;5391377;26;21009;-55
2024/04/17 11:35:34;;;;;;;0.00;0.00;;;19.40;49.20;;;;;;5366474;26;20300;-55
2024/04/17 11:38:03;;;;;;;0.00;0.00;;;19.40;49.20;;;;;;5366048;26;20219;-55
2024/04/17 11:40:36;;;;;;;0.10;0.10;;;19.40;49.20;;;;;;5401963;26;20701;-53
2024/04/17 11:43:21;;;;;;;0.00;0.00;;;19.30;49.20;;;;;;5405639;26;20291;-53
2024/04/17 11:45:50;;;;;;;0.10;0.10;;;19.30;49.10;;;;;;5438201;21;20347;-46
2024/04/17 11:48:27;;;;;;;0.10;0.10;;;19.30;49.10;;;;;;5442220;26;20595;-47
2024/04/17 11:50:56;;;;;;;0.10;0.10;;;19.30;49.10;;;;;;5442127;26;20254;-47
2024/04/17 11:53:28;;;;;;;0.00;0.00;;;19.30;49.10;;;;;;5442153;26;20600;-48
2024/04/17 11:55:57;;;;;;;0.00;0.00;;;19.30;49.10;;;;;;5395842;26;20231;-47
2024/04/17 11:58:30;;;;;;;0.00;0.00;;;19.30;49.10;;;;;;5386746;26;20237;-49
2024/04/17 12:00:59;;;;;;;0.00;0.00;;;19.30;49.00;;;;;;5385404;26;20231;-47
2024/04/17 12:03:34;;;;;;;0.08;0.08;;;19.20;49.00;;;;;;5384811;26;20234;-49
2024/04/17 12:06:04;;;;;;;0.00;0.00;;;19.20;48.90;;;;;;5386584;26;20280;-45
2024/04/17 12:08:36;;;;;;;0.10;0.10;;;19.20;48.90;;;;;;5384817;26;20261;-50
2024/04/17 12:11:05;;;;;;;0.10;0.10;;;19.20;48.90;;;;;;5387421;26;20580;-48
2024/04/17 12:13:38;;;;;;;0.00;0.00;;;19.20;48.80;;;;;;5389077;26;20749;-45
2024/04/17 12:16:10;;;;;;;0.10;0.10;;;19.20;48.80;;;;;;5388049;26;20257;-46
2024/04/17 12:18:45;;;;;;;0.10;0.10;;;19.20;48.80;;;;;;5386438;26;20234;-46
2024/04/17 12:21:16;;;;;;;0.10;0.10;;;19.20;48.80;;;;;;5405620;26;20225;-45
2024/04/17 12:23:51;;;;;;;0.00;0.00;;;19.10;48.70;;;;;;5405833;26;20747;-46
2024/04/17 12:29:09;;;;;;;0.00;0.00;;;19.10;48.60;;;;;;5408584;26;20309;-44
2024/04/17 12:31:41;;;;;;;0.10;0.10;;;19.10;49.30;;;;;;5406184;26;20271;-46
2024/04/17 12:34:17;;;;;;;0.00;0.00;;;19.10;48.60;;;;;;5405768;26;20226;-46
2024/04/17 12:36:49;;;;;;;0.00;0.00;;;19.10;48.70;;;;;;5405926;26;20293;-47
2024/04/17 12:39:21;;;;;;;0.00;0.00;;;19.10;48.60;;;;;;5405261;26;20217;-45
2024/04/17 12:41:54;;;;;;;0.00;0.00;;;19.00;48.50;;;;;;5404896;26;20264;-46
2024/04/17 12:44:26;;;;;;;0.10;0.10;;;19.00;48.50;;;;;;5405094;26;20568;-46
2024/04/17 12:46:59;;;;;;;0.00;0.00;;;19.00;48.50;;;;;;5405508;26;20217;-44
2024/04/17 12:49:35;;;;;;;0.10;0.10;;;19.00;48.50;;;;;;5406034;26;20643;-46
2024/04/17 12:52:08;;;;;;;0.10;0.10;;;19.00;48.50;;;;;;5405253;26;20221;-46
2024/04/17 12:54:40;;;;;;;0.00;0.00;;;19.00;48.40;;;;;;5405237;26;20233;-46
2024/04/17 12:57:12;;;;;;;0.08;0.08;;;19.00;48.50;;;;;;5405355;26;20264;-45
2024/04/17 12:59:46;;;;;;;0.10;0.10;;;19.00;48.40;;;;;;5404450;26;20230;-46
2024/04/17 13:02:15;;;;;;;0.10;0.10;;;19.00;48.40;;;;;;5404297;26;20264;-45
2024/04/17 13:04:53;;;;;;;0.08;0.08;;;19.00;48.30;;;;;;5404083;26;20237;-46
2024/04/17 13:07:22;;;;;;;0.00;0.00;;;18.90;48.20;;;;;;5373247;26;20261;-48
2024/04/17 13:09:54;;;;;;;0.00;0.00;;;19.00;48.30;;;;;;5369832;26;20226;-47
2024/04/17 13:12:23;;;;;;;0.10;0.10;;;18.90;48.20;;;;;;5369695;26;20226;-45
2024/04/17 13:14:56;;;;;;;0.08;0.08;;;18.90;48.20;;;;;;5378370;26;20287;-49